createdAt,value
2022-08-27T00:00:09.992Z,8.38
2022-08-27T00:02:36.588Z,8.05
2022-08-27T00:05:03.929Z,8.20
2022-08-27T00:07:30.899Z,7.63
2022-08-27T00:09:57.531Z,8.10
2022-08-27T00:12:24.182Z,7.90
2022-08-27T00:14:50.938Z,7.63
2022-08-27T00:17:17.740Z,8.52
2022-08-27T00:19:44.452Z,7.90
2022-08-27T00:22:12.428Z,7.97
2022-08-27T00:24:48.741Z,7.63
2022-08-27T00:27:15.956Z,7.88
2022-08-27T00:29:42.549Z,7.68
2022-08-27T00:32:09.327Z,8.48
2022-08-27T00:34:36.103Z,7.85
2022-08-27T00:37:03.524Z,7.68
2022-08-27T00:39:30.477Z,7.60
2022-08-27T00:41:57.112Z,8.57
2022-08-27T00:44:23.851Z,7.43
2022-08-27T00:46:54.308Z,7.53
2022-08-27T00:49:38.475Z,7.50
2022-08-27T00:52:11.199Z,6.93
2022-08-27T00:54:38.330Z,8.10
2022-08-27T00:57:05.465Z,7.85
2022-08-27T00:59:32.899Z,7.78
2022-08-27T01:02:19.572Z,8.48
2022-08-27T01:05:10.185Z,8.18
2022-08-27T01:07:40.911Z,7.68
2022-08-27T01:10:19.742Z,7.78
2022-08-27T01:12:53.726Z,7.65
2022-08-27T01:15:23.740Z,7.70
2022-08-27T01:17:51.166Z,7.95
2022-08-27T01:20:30.390Z,7.53
2022-08-27T01:23:17.694Z,8.02
2022-08-27T01:25:45.172Z,8.05
2022-08-27T01:28:13.662Z,8.00
2022-08-27T01:30:41.203Z,8.75
2022-08-27T01:33:16.905Z,7.38
2022-08-27T01:35:47.354Z,8.70
2022-08-27T01:38:30.405Z,7.38
2022-08-27T01:40:59.037Z,8.00
2022-08-27T01:43:27.963Z,8.60
2022-08-27T01:45:54.709Z,7.97
2022-08-27T01:48:22.556Z,8.63
2022-08-27T01:50:49.970Z,8.23
2022-08-27T01:53:22.958Z,8.52
2022-08-27T01:55:51.685Z,7.75
2022-08-27T01:58:22.322Z,8.10
2022-08-27T02:00:55.985Z,8.32
2022-08-27T02:03:24.026Z,8.27
2022-08-27T02:05:51.636Z,7.70
2022-08-27T02:08:18.656Z,8.77
2022-08-27T02:10:47.110Z,8.93
2022-08-27T02:13:14.127Z,9.07
2022-08-27T02:15:43.286Z,8.55
2022-08-27T02:18:11.433Z,8.30
2022-08-27T02:20:38.256Z,9.40
2022-08-27T02:23:05.237Z,9.25
2022-08-27T02:25:32.071Z,9.13
2022-08-27T02:28:02.085Z,8.73
2022-08-27T02:30:31.949Z,9.25
2022-08-27T02:33:00.890Z,9.65
2022-08-27T02:35:28.589Z,9.73
2022-08-27T02:37:56.759Z,9.57
2022-08-27T02:40:24.743Z,10.52
2022-08-27T02:42:52.005Z,8.98
2022-08-27T02:45:20.710Z,9.15
2022-08-27T02:47:48.446Z,10.30
2022-08-27T02:50:15.139Z,10.02
2022-08-27T02:52:43.099Z,11.00
2022-08-27T02:55:09.935Z,10.60
2022-08-27T02:57:37.004Z,10.60
2022-08-27T03:00:11.315Z,10.50
2022-08-27T03:02:38.944Z,10.10
2022-08-27T03:05:07.299Z,10.80
2022-08-27T03:07:34.227Z,10.60
2022-08-27T03:10:00.935Z,9.80
2022-08-27T03:12:27.665Z,10.98
2022-08-27T03:14:54.303Z,10.60
2022-08-27T03:17:39.400Z,10.25
2022-08-27T03:20:07.457Z,10.35
2022-08-27T03:22:34.305Z,10.43
2022-08-27T03:25:03.262Z,10.77
2022-08-27T03:27:29.965Z,11.18
2022-08-27T03:29:58.688Z,9.95
2022-08-27T03:32:28.573Z,9.52
2022-08-27T03:34:58.216Z,9.85
2022-08-27T03:37:25.493Z,10.43
2022-08-27T03:39:52.350Z,10.52
2022-08-27T03:42:19.120Z,10.07
2022-08-27T03:44:45.812Z,9.77
2022-08-27T03:47:12.526Z,10.07
2022-08-27T03:49:39.555Z,10.85
2022-08-27T03:52:06.612Z,10.13
2022-08-27T03:54:36.133Z,11.73
2022-08-27T03:57:02.980Z,10.98
2022-08-27T03:59:30.508Z,10.98
2022-08-27T04:01:57.248Z,10.68
2022-08-27T04:04:24.221Z,10.18
2022-08-27T04:06:50.979Z,10.77
2022-08-27T04:09:18.033Z,10.95
2022-08-27T04:11:44.891Z,11.15
2022-08-27T04:14:20.765Z,10.52
2022-08-27T04:16:56.012Z,10.88
2022-08-27T04:19:27.292Z,10.68
2022-08-27T04:21:58.782Z,10.68
2022-08-27T04:24:25.410Z,10.77
2022-08-27T04:26:52.022Z,10.15
2022-08-27T04:29:18.617Z,10.18
2022-08-27T04:31:45.254Z,10.68
2022-08-27T04:34:11.908Z,11.32
2022-08-27T04:36:38.541Z,11.30
2022-08-27T04:39:05.195Z,10.80
2022-08-27T04:41:33.359Z,10.20
2022-08-27T04:44:04.798Z,11.30
2022-08-27T04:46:35.221Z,11.50
2022-08-27T04:49:10.043Z,10.65
2022-08-27T04:51:38.028Z,11.15
2022-08-27T04:54:08.086Z,11.20
2022-08-27T04:56:35.864Z,11.20
2022-08-27T04:59:04.093Z,11.15
2022-08-27T05:01:31.196Z,10.63
2022-08-27T05:03:58.609Z,11.00
2022-08-27T05:06:25.695Z,11.40
2022-08-27T05:08:54.268Z,11.15
2022-08-27T05:11:22.621Z,10.80
2022-08-27T05:13:49.563Z,11.00
2022-08-27T05:16:19.551Z,10.98
2022-08-27T05:18:48.799Z,10.52
2022-08-27T05:21:24.691Z,10.55
2022-08-27T05:23:54.152Z,9.02
2022-08-27T05:26:21.585Z,10.75
2022-08-27T05:28:48.567Z,10.10
2022-08-27T05:31:16.704Z,10.02
2022-08-27T05:33:43.943Z,9.65
2022-08-27T05:36:23.054Z,9.77
2022-08-27T05:38:50.295Z,9.52
2022-08-27T05:41:20.037Z,8.65
2022-08-27T05:43:50.215Z,9.65
2022-08-27T05:46:20.011Z,10.32
2022-08-27T05:48:47.254Z,9.05
2022-08-27T05:51:26.059Z,9.77
2022-08-27T05:53:58.231Z,9.05
2022-08-27T05:56:27.503Z,9.32
2022-08-27T05:59:13.026Z,8.60
2022-08-27T06:01:48.563Z,9.27
2022-08-27T06:04:17.676Z,8.37
2022-08-27T06:06:45.726Z,8.93
2022-08-27T06:09:16.735Z,8.32
2022-08-27T06:11:44.012Z,8.38
2022-08-27T06:14:11.237Z,8.98
2022-08-27T06:16:38.774Z,9.32
2022-08-27T06:19:06.885Z,8.13
2022-08-27T06:21:34.560Z,8.07
2022-08-27T06:24:01.787Z,8.00
2022-08-27T06:26:29.287Z,8.90
2022-08-27T06:28:55.920Z,8.05
2022-08-27T06:31:25.244Z,7.82
2022-08-27T06:33:53.669Z,8.55
2022-08-27T06:36:25.540Z,7.32
2022-08-27T06:38:54.384Z,7.70
2022-08-27T06:41:24.201Z,7.20
2022-08-27T06:43:51.879Z,7.40
2022-08-27T06:46:22.062Z,7.45
2022-08-27T06:48:52.070Z,7.43
2022-08-27T06:51:29.636Z,7.80
2022-08-27T06:53:58.959Z,8.10
2022-08-27T06:56:26.297Z,6.97
2022-08-27T06:58:58.156Z,7.22
2022-08-27T07:01:30.271Z,6.95
2022-08-27T07:03:59.718Z,7.70
2022-08-27T07:06:28.971Z,7.00
2022-08-27T07:08:56.993Z,6.55
2022-08-27T07:11:24.140Z,7.03
2022-08-27T07:13:51.489Z,7.07
2022-08-27T07:16:24.531Z,6.75
2022-08-27T07:18:53.423Z,7.65
2022-08-27T07:21:21.276Z,6.95
2022-08-27T07:23:49.732Z,7.45
2022-08-27T07:26:17.561Z,7.10
2022-08-27T07:28:46.468Z,6.82
2022-08-27T07:31:16.977Z,6.43
2022-08-27T07:33:50.647Z,6.72
2022-08-27T07:36:20.975Z,6.50
2022-08-27T07:38:52.722Z,6.75
2022-08-27T07:41:31.396Z,6.88
2022-08-27T07:44:18.516Z,7.03
2022-08-27T07:46:48.011Z,6.40
2022-08-27T07:49:15.672Z,7.18
2022-08-27T07:51:42.371Z,6.50
2022-08-27T07:54:08.974Z,6.60
2022-08-27T07:56:35.656Z,6.85
2022-08-27T07:59:02.419Z,7.05
2022-08-27T08:01:29.810Z,6.57
2022-08-27T08:03:56.684Z,5.75
2022-08-27T08:06:23.467Z,5.90
2022-08-27T08:08:50.152Z,5.63
2022-08-27T08:11:17.950Z,5.90
2022-08-27T08:13:45.450Z,6.15
2022-08-27T08:16:13.472Z,5.30
2022-08-27T08:18:40.645Z,5.53
2022-08-27T08:21:09.862Z,5.97
2022-08-27T08:23:37.077Z,5.50
2022-08-27T08:26:04.024Z,5.78
2022-08-27T08:28:30.714Z,5.18
2022-08-27T08:30:58.244Z,4.72
2022-08-27T08:33:25.288Z,5.85
2022-08-27T08:35:53.090Z,5.32
2022-08-27T08:38:20.012Z,5.18
2022-08-27T08:40:50.277Z,4.68
2022-08-27T08:43:42.289Z,5.13
2022-08-27T08:46:17.208Z,5.53
2022-08-27T08:48:48.605Z,4.85
2022-08-27T08:51:32.638Z,4.90
2022-08-27T08:54:04.571Z,4.50
2022-08-27T08:56:56.822Z,5.38
2022-08-27T08:59:47.384Z,5.53
2022-08-27T09:02:15.223Z,4.93
2022-08-27T09:04:43.374Z,5.13
2022-08-27T09:07:23.885Z,4.03
2022-08-27T09:10:03.485Z,4.47
2022-08-27T09:12:33.105Z,4.20
2022-08-27T09:15:14.003Z,4.40
2022-08-27T09:17:42.035Z,4.40
2022-08-27T09:20:15.348Z,4.32
2022-08-27T09:23:06.184Z,4.97
2022-08-27T09:25:36.683Z,5.30
2022-08-27T09:28:31.848Z,4.57
2022-08-27T09:31:11.629Z,5.28
2022-08-27T09:33:40.869Z,4.85
2022-08-27T09:36:23.870Z,4.47
2022-08-27T09:39:00.191Z,5.45
2022-08-27T09:41:32.058Z,5.30
2022-08-27T09:44:10.222Z,4.90
2022-08-27T09:46:37.012Z,5.30
2022-08-27T09:49:12.100Z,5.35
2022-08-27T09:51:42.241Z,5.28
2022-08-27T09:54:09.221Z,4.47
2022-08-27T09:56:39.085Z,4.80
2022-08-27T09:59:08.842Z,4.55
2022-08-27T10:01:48.765Z,5.30
2022-08-27T10:04:17.550Z,4.93
2022-08-27T10:06:50.298Z,5.30
2022-08-27T10:09:20.436Z,4.70
2022-08-27T10:12:20.895Z,4.70
2022-08-27T10:14:53.078Z,5.10
2022-08-27T10:17:32.942Z,4.90
2022-08-27T10:20:18.347Z,5.03
2022-08-27T10:23:18.365Z,5.20
2022-08-27T10:26:16.968Z,4.50
2022-08-27T10:28:44.713Z,4.78
2022-08-27T10:31:45.968Z,4.65
2022-08-27T10:34:22.203Z,4.95
2022-08-27T10:37:11.437Z,4.40
2022-08-27T10:39:59.027Z,4.60
2022-08-27T10:42:40.798Z,4.15
2022-08-27T10:45:35.441Z,4.47
2022-08-27T10:48:06.696Z,4.50
2022-08-27T10:51:04.383Z,4.43
2022-08-27T10:53:47.414Z,4.60
2022-08-27T10:56:30.460Z,4.47
2022-08-27T10:59:10.367Z,4.15
2022-08-27T11:02:15.883Z,4.50
2022-08-27T11:04:56.049Z,4.07
2022-08-27T11:07:28.772Z,4.28
2022-08-27T11:10:15.201Z,3.95
2022-08-27T11:12:51.789Z,4.55
2022-08-27T11:15:25.799Z,4.82
2022-08-27T11:17:59.789Z,4.78
2022-08-27T11:20:35.861Z,4.32
2022-08-27T11:23:15.020Z,4.82
2022-08-27T11:26:03.833Z,4.30
2022-08-27T11:28:42.474Z,4.45
2022-08-27T11:31:31.304Z,4.60
2022-08-27T11:34:08.327Z,4.95
2022-08-27T11:37:12.856Z,4.40
2022-08-27T11:39:54.469Z,4.35
2022-08-27T11:42:59.273Z,5.13
2022-08-27T11:45:38.396Z,4.50
2022-08-27T11:48:28.129Z,4.82
2022-08-27T11:51:18.882Z,4.70
2022-08-27T11:53:57.365Z,4.70
2022-08-27T11:56:29.891Z,4.60
2022-08-27T11:59:08.463Z,4.25
2022-08-27T12:01:35.171Z,4.50
2022-08-27T12:04:06.232Z,5.10
2022-08-27T12:06:49.770Z,4.85
2022-08-27T12:09:21.319Z,4.72
2022-08-27T12:12:12.487Z,4.72
2022-08-27T12:14:44.945Z,4.65
2022-08-27T12:17:26.017Z,5.82
2022-08-27T12:20:13.029Z,6.40
2022-08-27T12:23:13.339Z,8.13
2022-08-27T12:25:40.027Z,7.90
2022-08-27T12:28:09.229Z,7.32
2022-08-27T12:30:39.176Z,7.22
2022-08-27T12:33:22.128Z,8.35
2022-08-27T12:35:52.378Z,8.50
2022-08-27T12:38:42.593Z,7.78
2022-08-27T12:41:12.992Z,8.93
2022-08-27T12:43:43.837Z,9.23
2022-08-27T12:46:19.467Z,9.32
2022-08-27T12:48:56.913Z,10.48
2022-08-27T12:51:37.978Z,8.32
2022-08-27T12:54:05.576Z,8.02
2022-08-27T12:56:50.579Z,8.10
2022-08-27T12:59:49.607Z,7.13
2022-08-27T13:03:01.233Z,7.30
2022-08-27T13:05:37.851Z,7.82
2022-08-27T13:08:04.841Z,6.78
2022-08-27T13:10:32.689Z,6.68
2022-08-27T13:13:11.951Z,6.68
2022-08-27T13:15:52.663Z,6.45
2022-08-27T13:18:20.080Z,6.13
2022-08-27T13:20:52.732Z,6.07
2022-08-27T13:23:23.827Z,5.75
2022-08-27T13:26:21.483Z,5.47
2022-08-27T13:28:49.498Z,5.28
2022-08-27T13:31:18.308Z,6.07
2022-08-27T13:33:45.421Z,5.80
2022-08-27T13:36:12.220Z,6.18
2022-08-27T13:38:49.773Z,5.60
2022-08-27T13:41:29.227Z,6.57
2022-08-27T13:43:59.375Z,5.95
2022-08-27T13:46:30.581Z,5.97
2022-08-27T13:48:59.005Z,5.75
2022-08-27T13:51:35.801Z,5.72
2022-08-27T13:54:18.506Z,5.82
2022-08-27T13:56:48.904Z,6.15
2022-08-27T13:59:25.793Z,6.18
2022-08-27T14:02:09.666Z,6.47
2022-08-27T14:04:49.546Z,6.00
2022-08-27T14:07:34.288Z,5.93
2022-08-27T14:10:08.731Z,5.82
2022-08-27T14:12:38.693Z,5.53
2022-08-27T14:15:18.827Z,6.00
2022-08-27T14:17:46.791Z,5.22
2022-08-27T14:20:15.683Z,5.53
2022-08-27T14:22:43.723Z,5.32
2022-08-27T14:25:11.552Z,5.93
2022-08-27T14:27:40.587Z,5.43
2022-08-27T14:30:21.888Z,5.93
2022-08-27T14:32:57.636Z,5.50
2022-08-27T14:35:25.266Z,5.88
2022-08-27T14:37:52.517Z,5.50
2022-08-27T14:40:19.571Z,5.40
2022-08-27T14:42:46.487Z,5.10
2022-08-27T14:45:13.346Z,5.50
2022-08-27T14:47:42.236Z,5.78
2022-08-27T14:50:12.283Z,5.00
2022-08-27T14:52:40.594Z,5.13
2022-08-27T14:55:10.904Z,5.03
2022-08-27T14:57:38.069Z,5.30
2022-08-27T15:00:06.535Z,4.85
2022-08-27T15:02:33.359Z,4.93
2022-08-27T15:05:00.073Z,4.53
2022-08-27T15:07:26.800Z,4.80
2022-08-27T15:09:56.224Z,4.07
2022-08-27T15:12:26.547Z,4.75
2022-08-27T15:14:54.011Z,4.45
2022-08-27T15:17:34.063Z,4.60
2022-08-27T15:20:08.649Z,4.65
2022-08-27T15:22:37.710Z,3.58
2022-08-27T15:25:09.553Z,4.25
2022-08-27T15:27:39.118Z,3.90
2022-08-27T15:30:11.678Z,4.38
2022-08-27T15:32:41.663Z,4.07
2022-08-27T15:35:13.692Z,4.28
2022-08-27T15:37:41.947Z,3.80
2022-08-27T15:40:10.300Z,4.28
2022-08-27T15:42:37.023Z,4.60
2022-08-27T15:45:05.524Z,4.88
2022-08-27T15:47:33.427Z,5.00
2022-08-27T15:50:00.553Z,4.90
2022-08-27T15:52:33.453Z,4.93
2022-08-27T15:55:30.976Z,4.90
2022-08-27T15:57:58.800Z,4.65
2022-08-27T16:00:26.552Z,4.60
2022-08-27T16:02:53.915Z,4.80
2022-08-27T16:05:22.516Z,4.28
2022-08-27T16:07:49.335Z,4.80
2022-08-27T16:10:16.599Z,4.63
2022-08-27T16:12:43.487Z,4.63
2022-08-27T16:15:10.688Z,4.78
2022-08-27T16:17:38.022Z,4.43
2022-08-27T16:20:07.402Z,4.63
2022-08-27T16:22:34.960Z,4.60
2022-08-27T16:25:03.030Z,4.20
2022-08-27T16:27:29.650Z,4.15
2022-08-27T16:29:57.001Z,4.30
2022-08-27T16:32:23.825Z,4.25
2022-08-27T16:34:55.818Z,4.05
2022-08-27T16:37:24.121Z,4.70
2022-08-27T16:39:51.172Z,4.47
2022-08-27T16:42:18.155Z,4.68
2022-08-27T16:44:44.756Z,4.60
2022-08-27T16:47:11.552Z,4.45
2022-08-27T16:49:56.845Z,4.60
2022-08-27T16:52:23.917Z,4.88
2022-08-27T16:54:51.634Z,4.70
2022-08-27T16:57:18.825Z,4.82
2022-08-27T16:59:46.004Z,4.70
2022-08-27T17:02:25.545Z,4.80
2022-08-27T17:05:12.248Z,5.10
2022-08-27T17:07:48.321Z,4.82
2022-08-27T17:10:17.566Z,5.30
2022-08-27T17:12:47.011Z,5.22
2022-08-27T17:15:16.065Z,4.90
2022-08-27T17:17:42.760Z,5.03
2022-08-27T17:20:09.821Z,5.45
2022-08-27T17:22:36.663Z,4.88
2022-08-27T17:25:03.911Z,5.28
2022-08-27T17:27:30.620Z,5.18
2022-08-27T17:29:57.281Z,4.93
2022-08-27T17:32:24.082Z,5.10
2022-08-27T17:34:51.163Z,5.25
2022-08-27T17:37:18.433Z,5.10
2022-08-27T17:39:45.767Z,4.65
2022-08-27T17:42:12.495Z,5.25
2022-08-27T17:44:39.310Z,4.43
2022-08-27T17:47:08.142Z,4.57
2022-08-27T17:49:35.827Z,4.60
2022-08-27T17:52:10.872Z,4.38
2022-08-27T17:54:47.083Z,4.65
2022-08-27T17:57:26.932Z,4.55
2022-08-27T17:59:54.407Z,5.00
2022-08-27T18:02:22.651Z,5.75
2022-08-27T18:04:50.251Z,4.53
2022-08-27T18:07:17.408Z,5.00
2022-08-27T18:09:44.171Z,4.82
2022-08-27T18:12:15.116Z,4.78
2022-08-27T18:14:42.346Z,4.63
2022-08-27T18:17:09.069Z,4.65
2022-08-27T18:19:45.502Z,4.93
2022-08-27T18:22:12.519Z,4.82
2022-08-27T18:24:39.137Z,4.82
2022-08-27T18:27:06.334Z,4.68
2022-08-27T18:29:33.457Z,4.97
2022-08-27T18:32:00.105Z,5.00
2022-08-27T18:34:27.715Z,5.10
2022-08-27T18:36:54.296Z,5.13
2022-08-27T18:39:21.055Z,4.72
2022-08-27T18:41:52.758Z,5.03
2022-08-27T18:44:19.424Z,5.25
2022-08-27T18:46:46.152Z,4.72
2022-08-27T18:49:12.879Z,4.53
2022-08-27T18:51:47.142Z,5.05
2022-08-27T18:54:17.240Z,5.22
2022-08-27T18:56:43.835Z,5.45
2022-08-27T18:59:11.120Z,5.28
2022-08-27T19:01:37.903Z,5.10
2022-08-27T19:04:05.231Z,4.97
2022-08-27T19:06:32.512Z,4.93
2022-08-27T19:08:59.427Z,4.78
2022-08-27T19:11:27.461Z,4.80
2022-08-27T19:13:54.125Z,4.82
2022-08-27T19:16:34.631Z,4.35
2022-08-27T19:19:03.005Z,4.65
2022-08-27T19:21:29.656Z,4.93
2022-08-27T19:23:56.397Z,4.70
2022-08-27T19:26:25.840Z,4.30
2022-08-27T19:28:53.041Z,4.60
2022-08-27T19:31:19.807Z,4.57
2022-08-27T19:33:46.498Z,4.18
2022-08-27T19:36:16.179Z,4.30
2022-08-27T19:38:43.913Z,4.32
2022-08-27T19:41:10.690Z,4.78
2022-08-27T19:43:37.386Z,3.90
2022-08-27T19:46:05.341Z,4.57
2022-08-27T19:48:34.171Z,3.88
2022-08-27T19:51:01.021Z,4.40
2022-08-27T19:53:27.700Z,4.40
2022-08-27T19:55:54.346Z,4.22
2022-08-27T19:58:22.623Z,4.40
2022-08-27T20:00:49.530Z,3.80
2022-08-27T20:03:16.327Z,4.18
2022-08-27T20:05:45.765Z,4.20
2022-08-27T20:08:19.395Z,4.60
2022-08-27T20:10:46.139Z,4.15
2022-08-27T20:13:12.837Z,4.30
2022-08-27T20:15:40.605Z,4.50
2022-08-27T20:18:08.065Z,4.30
2022-08-27T20:20:35.671Z,4.25
2022-08-27T20:23:03.678Z,4.15
2022-08-27T20:25:31.303Z,4.30
2022-08-27T20:27:57.939Z,4.30
2022-08-27T20:30:26.835Z,4.13
2022-08-27T20:32:53.513Z,4.15
2022-08-27T20:35:21.819Z,3.80
2022-08-27T20:37:48.591Z,4.30
2022-08-27T20:40:25.846Z,3.80
2022-08-27T20:42:52.891Z,4.40
2022-08-27T20:45:20.205Z,4.30
2022-08-27T20:47:49.005Z,4.20
2022-08-27T20:50:16.816Z,4.68
2022-08-27T20:52:44.888Z,3.95
2022-08-27T20:55:12.761Z,3.95
2022-08-27T20:58:04.361Z,4.18
2022-08-27T21:00:35.628Z,4.45
2022-08-27T21:03:02.833Z,3.97
2022-08-27T21:05:34.341Z,3.88
2022-08-27T21:08:02.339Z,4.20
2022-08-27T21:10:28.990Z,3.90
2022-08-27T21:12:55.714Z,4.20
2022-08-27T21:15:22.328Z,4.15
2022-08-27T21:17:48.937Z,4.15
2022-08-27T21:20:15.690Z,3.88
2022-08-27T21:22:43.556Z,3.85
2022-08-27T21:25:12.501Z,3.88
2022-08-27T21:27:39.171Z,3.80
2022-08-27T21:30:07.438Z,3.72
2022-08-27T21:32:34.042Z,3.63
2022-08-27T21:35:00.636Z,3.70
2022-08-27T21:37:27.281Z,3.25
2022-08-27T21:39:53.963Z,3.70
2022-08-27T21:42:20.863Z,3.15
2022-08-27T21:44:47.554Z,3.80
2022-08-27T21:47:14.180Z,3.20
2022-08-27T21:49:41.020Z,3.28
2022-08-27T21:52:08.197Z,3.47
2022-08-27T21:54:38.640Z,3.60
2022-08-27T21:57:06.381Z,3.53
2022-08-27T21:59:40.019Z,3.53
2022-08-27T22:02:28.749Z,3.80
2022-08-27T22:04:54.246Z,3.55
2022-08-27T22:07:21.029Z,3.83
2022-08-27T22:09:47.727Z,3.45
2022-08-27T22:12:14.365Z,3.38
2022-08-27T22:14:41.097Z,3.83
2022-08-27T22:17:07.747Z,3.50
2022-08-27T22:19:34.425Z,3.65
2022-08-27T22:22:01.035Z,4.00
2022-08-27T22:24:27.730Z,3.60
2022-08-27T22:26:54.433Z,3.80
2022-08-27T22:29:21.057Z,3.92
2022-08-27T22:31:47.777Z,3.87
2022-08-27T22:34:15.802Z,3.53
2022-08-27T22:36:42.606Z,3.90
2022-08-27T22:39:09.265Z,3.87
2022-08-27T22:41:35.900Z,3.93
2022-08-27T22:44:05.157Z,3.80
2022-08-27T22:46:31.822Z,3.83
2022-08-27T22:48:58.588Z,3.87
2022-08-27T22:51:25.290Z,10.70
2022-08-27T22:53:51.954Z,4.33
2022-08-27T22:56:19.212Z,4.10
2022-08-27T22:58:46.401Z,3.97
2022-08-27T23:01:18.617Z,4.13
2022-08-27T23:03:45.323Z,3.80
2022-08-27T23:06:12.086Z,3.57
2022-08-27T23:08:39.045Z,3.77
2022-08-27T23:11:05.787Z,3.70
2022-08-27T23:13:33.015Z,4.03
2022-08-27T23:16:01.603Z,3.93
2022-08-27T23:18:29.141Z,4.13
2022-08-27T23:20:55.802Z,4.30
2022-08-27T23:23:22.547Z,4.33
2022-08-27T23:26:11.938Z,3.67
2022-08-27T23:28:38.616Z,3.77
2022-08-27T23:31:05.380Z,3.63
2022-08-27T23:33:32.110Z,3.57
2022-08-27T23:35:58.712Z,3.77
2022-08-27T23:38:25.352Z,3.50
2022-08-27T23:40:53.250Z,4.00
2022-08-27T23:43:20.703Z,3.57
2022-08-27T23:45:48.249Z,5.37
2022-08-27T23:48:15.192Z,4.10
2022-08-27T23:50:42.284Z,3.93
2022-08-27T23:53:10.236Z,3.50
2022-08-27T23:55:40.047Z,3.73
2022-08-27T23:58:08.194Z,4.47
